MMMY/MTY METAR and TAF weather

Enter ICAO airport designator
Station Type Date Time Source
MMMY METAR 2019/02/22 21:40 UTC NOAA

MMMY 222140Z 12008KT 5SM BKN200 24/14 A2979 RMK 8/002 HZ


Station Type Date Time Source
MMMY Decoded METAR 2019/02/22 21:40 UTC NOAA

Monterrey / Gen Maria, Mexico (MMMY) 25-47N 100-06W
Feb 22, 2019 - 04:40 PM EST / 2019.02.22 2140 UTC
Wind: from the ESE (120 degrees) at 9 MPH (8 KT):0
Visibility: 5 mile(s):0
Sky conditions: mostly cloudy
Temperature: 75 F (24 C)
Dew Point: 57 F (14 C)
Relative Humidity: 53%
Pressure (altimeter): 29.79 in. Hg (1008 hPa)
ob: MMMY 222140Z 12008KT 5SM BKN200 24/14 A2979 RMK 8/002 HZ
cycle: 21

Station Type Date Time Source
MMMY TAF 2019/02/22 18:26 UTC NOAA

TAF MMMY 221719Z 2218/2324 06005KT 6SM HZ SCT015 BKN030 TX24/2222Z TN14/2313Z
BECMG 2220/2221 12012KT SCT030 BKN250
FM230200 12006KT 4SM BR HZ BKN015 BKN250
TEMPO 2303/2307 2SM BR HZ OVC010
FM231000 03005KT 5SM HZ BKN015 BKN250
BECMG 2312/2313 SCT015 BKN250
FM231600 07005KT 6SM HZ BKN250
BECMG 2320/2321 09012KT


Example: see airport list